KACK/ACK METAR and TAF weather

Enter ICAO airport designator
Station Type Date Time Source
KACK METAR 2019/06/18 16:31 UTC NOAA

KACK 181631Z 15009KT 3/4SM R24/3000FT BR VV002 16/15 A2999 RMK AO2 T01610150 $


Station Type Date Time Source
KACK Decoded METAR 2019/06/18 16:31 UTC NOAA

NANTUCKET MEMORIAL AIRPORT, MA, United States (KACK) 41-15N 70-04W 16M
Jun 18, 2019 - 12:31 PM EDT / 2019.06.18 1631 UTC
Wind: from the SSE (150 degrees) at 10 MPH (9 KT):0
Visibility: 3/4 mile(s):0
Sky conditions: obscured
Weather: mist
Temperature: 61.0 F (16.1 C)
Dew Point: 59.0 F (15.0 C)
Relative Humidity: 93%
Pressure (altimeter): 29.99 in. Hg (1015 hPa)
ob: KACK 181631Z 15009KT 3/4SM R24/3000FT BR VV002 16/15 A2999 RMK AO2 T01610150
cycle: 16

Station Type Date Time Source
KACK TAF 2019/06/18 13:15 UTC NOAA

TAF
AMD KACK 181312Z 1813/1912 14004KT P6SM OVC050
FM181530 15009KT 4SM -RA BR SCT003 OVC040
FM182200 12008KT 1SM -SHRA BR OVC003
FM190700 10004KT 3SM BR VCSH OVC003

Example: see airport list